sensor_id;sensor_type;location;lat;lon;timestamp;pressure;altitude;pressure_sealevel;temperature;humidity
62055;BME280;48653;51.742;-1.256;2023-02-22T00:03:48;100589.36;;;7.79;50.46
62055;BME280;48653;51.742;-1.256;2023-02-22T00:06:14;100586.53;;;8.90;50.62
62055;BME280;48653;51.742;-1.256;2023-02-22T00:08:35;100584.82;;;9.45;50.48
62055;BME280;48653;51.742;-1.256;2023-02-22T00:11:01;100581.76;;;9.00;51.17
62055;BME280;48653;51.742;-1.256;2023-02-22T00:13:25;100586.94;;;8.78;51.73
62055;BME280;48653;51.742;-1.256;2023-02-22T00:15:50;100579.51;;;8.66;51.80
62055;BME280;48653;51.742;-1.256;2023-02-22T00:18:17;100585.31;;;8.64;51.84
62055;BME280;48653;51.742;-1.256;2023-02-22T00:20:40;100584.65;;;8.49;52.69
62055;BME280;48653;51.742;-1.256;2023-02-22T00:23:07;100586.41;;;8.79;52.67
62055;BME280;48653;51.742;-1.256;2023-02-22T00:25:32;100581.67;;;8.99;52.13
62055;BME280;48653;51.742;-1.256;2023-02-22T00:27:57;100577.59;;;8.88;51.87
62055;BME280;48653;51.742;-1.256;2023-02-22T00:30:25;100570.89;;;8.97;51.34
62055;BME280;48653;51.742;-1.256;2023-02-22T00:32:49;100571.78;;;8.90;51.97
62055;BME280;48653;51.742;-1.256;2023-02-22T00:35:14;100571.02;;;8.78;52.19
62055;BME280;48653;51.742;-1.256;2023-02-22T00:37:39;100570.50;;;8.66;52.01
62055;BME280;48653;51.742;-1.256;2023-02-22T00:40:06;100569.84;;;8.83;51.66
62055;BME280;48653;51.742;-1.256;2023-02-22T00:42:30;100564.11;;;9.14;51.53
62055;BME280;48653;51.742;-1.256;2023-02-22T00:44:55;100562.92;;;8.77;51.78
62055;BME280;48653;51.742;-1.256;2023-02-22T00:47:20;100554.32;;;8.41;52.73
62055;BME280;48653;51.742;-1.256;2023-02-22T00:49:46;100558.30;;;8.57;53.33
62055;BME280;48653;51.742;-1.256;2023-02-22T00:52:11;100555.96;;;8.54;52.80
62055;BME280;48653;51.742;-1.256;2023-02-22T00:54:36;100557.72;;;8.68;52.75
62055;BME280;48653;51.742;-1.256;2023-02-22T00:57:02;100556.15;;;8.28;53.39
62055;BME280;48653;51.742;-1.256;2023-02-22T00:59:28;100550.82;;;8.40;53.48
62055;BME280;48653;51.742;-1.256;2023-02-22T01:01:53;100555.88;;;7.86;55.17
62055;BME280;48653;51.742;-1.256;2023-02-22T01:04:18;100564.23;;;7.13;56.15
62055;BME280;48653;51.742;-1.256;2023-02-22T01:06:44;100562.82;;;7.90;55.21
62055;BME280;48653;51.742;-1.256;2023-02-22T01:09:09;100559.92;;;8.13;54.57
62055;BME280;48653;51.742;-1.256;2023-02-22T01:11:35;100560.85;;;8.30;54.19
62055;BME280;48653;51.742;-1.256;2023-02-22T01:14:00;100558.67;;;8.34;53.04
62055;BME280;48653;51.742;-1.256;2023-02-22T01:16:26;100557.79;;;8.48;53.00
62055;BME280;48653;51.742;-1.256;2023-02-22T01:18:51;100553.63;;;8.82;52.21
62055;BME280;48653;51.742;-1.256;2023-02-22T01:21:18;100554.12;;;8.90;52.30
62055;BME280;48653;51.742;-1.256;2023-02-22T01:23:43;100553.54;;;8.78;52.51
62055;BME280;48653;51.742;-1.256;2023-02-22T01:26:09;100545.13;;;8.75;52.56
62055;BME280;48653;51.742;-1.256;2023-02-22T01:28:34;100539.66;;;9.28;52.10
62055;BME280;48653;51.742;-1.256;2023-02-22T01:30:59;100540.24;;;8.71;52.84
62055;BME280;48653;51.742;-1.256;2023-02-22T01:33:25;100541.61;;;8.74;52.72
62055;BME280;48653;51.742;-1.256;2023-02-22T01:35:50;100538.15;;;8.69;52.92
62055;BME280;48653;51.742;-1.256;2023-02-22T01:38:16;100535.52;;;8.94;52.41
62055;BME280;48653;51.742;-1.256;2023-02-22T01:40:45;100528.69;;;9.02;52.07
62055;BME280;48653;51.742;-1.256;2023-02-22T01:43:14;100528.77;;;8.53;52.84
62055;BME280;48653;51.742;-1.256;2023-02-22T01:45:44;100520.05;;;8.55;52.99
62055;BME280;48653;51.742;-1.256;2023-02-22T01:48:01;100515.93;;;8.87;52.59
62055;BME280;48653;51.742;-1.256;2023-02-22T01:50:23;100519.36;;;8.93;52.37
62055;BME280;48653;51.742;-1.256;2023-02-22T01:52:48;100522.77;;;8.93;52.95
62055;BME280;48653;51.742;-1.256;2023-02-22T01:55:13;100523.81;;;8.79;52.28
62055;BME280;48653;51.742;-1.256;2023-02-22T01:57:38;100519.97;;;9.14;51.99
62055;BME280;48653;51.742;-1.256;2023-02-22T02:00:07;100519.96;;;8.78;52.22
62055;BME280;48653;51.742;-1.256;2023-02-22T02:02:30;100514.52;;;8.99;52.73
62055;BME280;48653;51.742;-1.256;2023-02-22T02:04:56;100521.62;;;8.66;53.19
62055;BME280;48653;51.742;-1.256;2023-02-22T02:07:22;100525.40;;;8.98;52.60
62055;BME280;48653;51.742;-1.256;2023-02-22T02:09:51;100521.58;;;8.87;53.00
62055;BME280;48653;51.742;-1.256;2023-02-22T02:12:15;100518.12;;;8.90;52.38
62055;BME280;48653;51.742;-1.256;2023-02-22T02:14:39;100515.47;;;9.12;52.46
62055;BME280;48653;51.742;-1.256;2023-02-22T02:17:03;100512.35;;;9.13;52.32
62055;BME280;48653;51.742;-1.256;2023-02-22T02:19:38;100503.80;;;9.19;52.22
62055;BME280;48653;51.742;-1.256;2023-02-22T02:22:09;100499.40;;;9.29;52.86
62055;BME280;48653;51.742;-1.256;2023-02-22T02:27:01;100485.85;;;9.09;52.19
62055;BME280;48653;51.742;-1.256;2023-02-22T02:34:04;100478.95;;;9.06;52.52
62055;BME280;48653;51.742;-1.256;2023-02-22T02:36:30;100473.86;;;9.32;52.66
62055;BME280;48653;51.742;-1.256;2023-02-22T02:38:56;100476.61;;;9.23;52.84
62055;BME280;48653;51.742;-1.256;2023-02-22T02:41:21;100475.10;;;9.47;51.65
62055;BME280;48653;51.742;-1.256;2023-02-22T02:43:50;100473.48;;;8.83;52.49
62055;BME280;48653;51.742;-1.256;2023-02-22T02:46:13;100471.73;;;9.30;52.18
62055;BME280;48653;51.742;-1.256;2023-02-22T02:48:37;100470.31;;;9.30;52.32
62055;BME280;48653;51.742;-1.256;2023-02-22T02:51:02;100475.44;;;9.11;52.12
62055;BME280;48653;51.742;-1.256;2023-02-22T02:53:31;100473.46;;;9.17;52.38
62055;BME280;48653;51.742;-1.256;2023-02-22T02:55:51;100472.31;;;9.04;52.48
62055;BME280;48653;51.742;-1.256;2023-02-22T02:58:19;100468.96;;;9.25;52.31
62055;BME280;48653;51.742;-1.256;2023-02-22T03:00:42;100464.65;;;9.11;52.65
62055;BME280;48653;51.742;-1.256;2023-02-22T03:03:21;100467.31;;;9.08;52.12
62055;BME280;48653;51.742;-1.256;2023-02-22T03:05:52;100466.98;;;8.87;52.96
62055;BME280;48653;51.742;-1.256;2023-02-22T03:08:02;100465.48;;;8.73;53.38
62055;BME280;48653;51.742;-1.256;2023-02-22T03:10:36;100459.43;;;8.31;54.26
62055;BME280;48653;51.742;-1.256;2023-02-22T03:12:56;100455.10;;;8.70;53.55
62055;BME280;48653;51.742;-1.256;2023-02-22T03:15:23;100456.62;;;8.66;53.37
62055;BME280;48653;51.742;-1.256;2023-02-22T03:17:46;100458.27;;;8.54;53.94
62055;BME280;48653;51.742;-1.256;2023-02-22T03:20:11;100454.22;;;8.95;53.02
62055;BME280;48653;51.742;-1.256;2023-02-22T03:22:36;100455.37;;;9.31;52.51
62055;BME280;48653;51.742;-1.256;2023-02-22T03:25:00;100455.25;;;9.04;52.79
62055;BME280;48653;51.742;-1.256;2023-02-22T03:27:25;100453.37;;;9.27;52.48
62055;BME280;48653;51.742;-1.256;2023-02-22T03:29:50;100452.47;;;9.32;52.36
62055;BME280;48653;51.742;-1.256;2023-02-22T03:32:18;100450.06;;;9.62;51.94
62055;BME280;48653;51.742;-1.256;2023-02-22T03:34:42;100445.90;;;9.47;52.18
62055;BME280;48653;51.742;-1.256;2023-02-22T03:37:07;100448.70;;;9.45;52.37
62055;BME280;48653;51.742;-1.256;2023-02-22T03:39:30;100443.94;;;9.20;52.18
62055;BME280;48653;51.742;-1.256;2023-02-22T03:41:57;100444.19;;;9.28;52.25
62055;BME280;48653;51.742;-1.256;2023-02-22T03:44:23;100443.58;;;9.19;52.48
62055;BME280;48653;51.742;-1.256;2023-02-22T03:46:47;100441.64;;;9.45;51.73
62055;BME280;48653;51.742;-1.256;2023-02-22T03:49:15;100439.17;;;9.03;52.34
62055;BME280;48653;51.742;-1.256;2023-02-22T03:51:36;100433.70;;;9.14;52.19
62055;BME280;48653;51.742;-1.256;2023-02-22T03:54:02;100435.38;;;9.32;52.79
62055;BME280;48653;51.742;-1.256;2023-02-22T03:56:30;100436.23;;;9.49;52.00
62055;BME280;48653;51.742;-1.256;2023-02-22T03:58:53;100434.50;;;9.59;52.28
62055;BME280;48653;51.742;-1.256;2023-02-22T04:01:18;100437.86;;;8.96;52.43
62055;BME280;48653;51.742;-1.256;2023-02-22T04:03:43;100434.01;;;9.21;52.42
62055;BME280;48653;51.742;-1.256;2023-02-22T04:06:09;100433.39;;;9.45;52.60
62055;BME280;48653;51.742;-1.256;2023-02-22T04:08:34;100431.58;;;9.11;52.41
62055;BME280;48653;51.742;-1.256;2023-02-22T04:10:59;100432.72;;;9.50;52.11
62055;BME280;48653;51.742;-1.256;2023-02-22T04:13:25;100430.74;;;9.43;52.66
62055;BME280;48653;51.742;-1.256;2023-02-22T04:15:50;100432.70;;;9.80;52.09
62055;BME280;48653;51.742;-1.256;2023-02-22T04:18:16;100427.12;;;9.15;52.78
62055;BME280;48653;51.742;-1.256;2023-02-22T04:20:41;100424.54;;;9.03;52.67
62055;BME280;48653;51.742;-1.256;2023-02-22T04:23:06;100419.31;;;9.55;52.54
62055;BME280;48653;51.742;-1.256;2023-02-22T04:25:31;100422.26;;;9.22;52.22
62055;BME280;48653;51.742;-1.256;2023-02-22T04:27:57;100415.70;;;9.44;52.82
62055;BME280;48653;51.742;-1.256;2023-02-22T04:30:22;100414.72;;;9.08;52.56
62055;BME280;48653;51.742;-1.256;2023-02-22T04:32:48;100411.54;;;9.55;52.52
62055;BME280;48653;51.742;-1.256;2023-02-22T04:35:14;100409.89;;;9.61;51.97
62055;BME280;48653;51.742;-1.256;2023-02-22T04:37:39;100410.75;;;9.59;52.13
62055;BME280;48653;51.742;-1.256;2023-02-22T04:40:06;100405.55;;;9.95;51.75
62055;BME280;48653;51.742;-1.256;2023-02-22T04:42:30;100405.21;;;9.62;52.03
62055;BME280;48653;51.742;-1.256;2023-02-22T04:44:56;100399.13;;;9.08;52.54
62055;BME280;48653;51.742;-1.256;2023-02-22T04:47:22;100398.96;;;9.31;52.40
62055;BME280;48653;51.742;-1.256;2023-02-22T04:49:47;100400.69;;;9.50;52.65
62055;BME280;48653;51.742;-1.256;2023-02-22T04:52:13;100399.74;;;9.35;53.00
62055;BME280;48653;51.742;-1.256;2023-02-22T04:54:38;100399.51;;;9.06;52.59
62055;BME280;48653;51.742;-1.256;2023-02-22T04:57:04;100398.29;;;9.06;53.49
62055;BME280;48653;51.742;-1.256;2023-02-22T04:59:29;100394.13;;;9.18;52.69
62055;BME280;48653;51.742;-1.256;2023-02-22T05:01:55;100390.39;;;9.23;52.74
62055;BME280;48653;51.742;-1.256;2023-02-22T05:04:20;100389.36;;;9.34;52.75
62055;BME280;48653;51.742;-1.256;2023-02-22T05:06:45;100388.43;;;9.55;52.72
62055;BME280;48653;51.742;-1.256;2023-02-22T05:09:11;100385.18;;;9.07;53.38
62055;BME280;48653;51.742;-1.256;2023-02-22T05:11:36;100386.35;;;9.03;53.24
62055;BME280;48653;51.742;-1.256;2023-02-22T05:14:02;100384.32;;;9.44;53.09
62055;BME280;48653;51.742;-1.256;2023-02-22T05:16:28;100384.79;;;9.22;53.20
62055;BME280;48653;51.742;-1.256;2023-02-22T05:18:53;100381.91;;;8.86;52.98
62055;BME280;48653;51.742;-1.256;2023-02-22T05:21:18;100381.40;;;9.54;52.67
62055;BME280;48653;51.742;-1.256;2023-02-22T05:23:43;100383.69;;;9.76;52.21
62055;BME280;48653;51.742;-1.256;2023-02-22T05:26:09;100382.75;;;9.21;52.80
62055;BME280;48653;51.742;-1.256;2023-02-22T05:28:34;100382.36;;;9.01;52.66
62055;BME280;48653;51.742;-1.256;2023-02-22T05:30:59;100380.78;;;9.55;52.55
62055;BME280;48653;51.742;-1.256;2023-02-22T05:33:24;100378.82;;;9.27;52.70
62055;BME280;48653;51.742;-1.256;2023-02-22T05:35:50;100370.37;;;8.50;53.53
62055;BME280;48653;51.742;-1.256;2023-02-22T05:38:16;100374.95;;;9.24;52.73
62055;BME280;48653;51.742;-1.256;2023-02-22T05:40:42;100372.67;;;8.87;52.95
62055;BME280;48653;51.742;-1.256;2023-02-22T05:43:06;100369.37;;;9.52;52.68
62055;BME280;48653;51.742;-1.256;2023-02-22T05:45:31;100370.81;;;9.40;52.44
62055;BME280;48653;51.742;-1.256;2023-02-22T05:47:56;100369.14;;;9.70;52.35
62055;BME280;48653;51.742;-1.256;2023-02-22T05:50:23;100370.60;;;9.43;52.30
62055;BME280;48653;51.742;-1.256;2023-02-22T05:52:48;100370.10;;;9.20;52.39
62055;BME280;48653;51.742;-1.256;2023-02-22T05:55:16;100370.45;;;9.33;53.04
62055;BME280;48653;51.742;-1.256;2023-02-22T05:57:39;100371.38;;;8.99;53.60
62055;BME280;48653;51.742;-1.256;2023-02-22T06:00:05;100374.02;;;9.32;53.11
62055;BME280;48653;51.742;-1.256;2023-02-22T06:02:29;100372.26;;;8.62;53.37
62055;BME280;48653;51.742;-1.256;2023-02-22T06:04:55;100376.21;;;9.13;53.38
62055;BME280;48653;51.742;-1.256;2023-02-22T06:07:20;100373.77;;;8.54;53.58
62055;BME280;48653;51.742;-1.256;2023-02-22T06:09:50;100376.81;;;9.11;53.49
62055;BME280;48653;51.742;-1.256;2023-02-22T06:12:10;100375.41;;;9.12;53.44
62055;BME280;48653;51.742;-1.256;2023-02-22T06:14:36;100376.63;;;8.93;53.37
62055;BME280;48653;51.742;-1.256;2023-02-22T06:17:02;100377.75;;;9.10;53.01
62055;BME280;48653;51.742;-1.256;2023-02-22T06:19:27;100376.74;;;9.10;52.94
62055;BME280;48653;51.742;-1.256;2023-02-22T06:21:54;100375.25;;;9.24;53.15
62055;BME280;48653;51.742;-1.256;2023-02-22T06:24:18;100379.13;;;9.31;52.95
62055;BME280;48653;51.742;-1.256;2023-02-22T06:26:44;100372.58;;;8.85;53.92
62055;BME280;48653;51.742;-1.256;2023-02-22T06:29:08;100369.19;;;8.74;53.73
62055;BME280;48653;51.742;-1.256;2023-02-22T06:31:34;100373.34;;;8.48;54.56
62055;BME280;48653;51.742;-1.256;2023-02-22T06:33:59;100370.46;;;8.72;54.40
62055;BME280;48653;51.742;-1.256;2023-02-22T06:36:24;100369.84;;;8.73;54.69
62055;BME280;48653;51.742;-1.256;2023-02-22T06:38:50;100365.80;;;9.12;54.10
62055;BME280;48653;51.742;-1.256;2023-02-22T06:41:16;100367.26;;;8.50;54.77
62055;BME280;48653;51.742;-1.256;2023-02-22T06:43:41;100370.36;;;8.72;54.28
62055;BME280;48653;51.742;-1.256;2023-02-22T06:46:09;100372.25;;;8.80;54.41
62055;BME280;48653;51.742;-1.256;2023-02-22T06:48:32;100364.85;;;8.76;54.23
62055;BME280;48653;51.742;-1.256;2023-02-22T06:50:57;100362.97;;;8.68;54.54
62055;BME280;48653;51.742;-1.256;2023-02-22T06:53:23;100360.22;;;8.63;54.17
62055;BME280;48653;51.742;-1.256;2023-02-22T06:55:49;100351.86;;;8.89;53.59
62055;BME280;48653;51.742;-1.256;2023-02-22T06:58:14;100351.06;;;8.73;53.34
62055;BME280;48653;51.742;-1.256;2023-02-22T07:00:40;100350.78;;;9.25;52.69
62055;BME280;48653;51.742;-1.256;2023-02-22T07:03:05;100360.89;;;9.35;52.35
62055;BME280;48653;51.742;-1.256;2023-02-22T07:05:31;100362.74;;;9.04;52.90
62055;BME280;48653;51.742;-1.256;2023-02-22T07:08:03;100357.28;;;9.17;52.61
62055;BME280;48653;51.742;-1.256;2023-02-22T07:10:24;100364.77;;;8.97;52.98
62055;BME280;48653;51.742;-1.256;2023-02-22T07:12:47;100371.87;;;8.18;53.90
62055;BME280;48653;51.742;-1.256;2023-02-22T07:15:12;100371.71;;;9.00;53.14
62055;BME280;48653;51.742;-1.256;2023-02-22T07:17:38;100377.28;;;9.02;52.99
62055;BME280;48653;51.742;-1.256;2023-02-22T07:20:04;100374.67;;;8.96;53.21
62055;BME280;48653;51.742;-1.256;2023-02-22T07:22:29;100381.92;;;8.83;53.43
62055;BME280;48653;51.742;-1.256;2023-02-22T07:24:55;100382.99;;;8.90;53.22
62055;BME280;48653;51.742;-1.256;2023-02-22T07:27:22;100384.57;;;9.00;52.97
62055;BME280;48653;51.742;-1.256;2023-02-22T07:29:46;100383.52;;;8.89;53.28
62055;BME280;48653;51.742;-1.256;2023-02-22T07:32:11;100383.37;;;8.90;53.35
62055;BME280;48653;51.742;-1.256;2023-02-22T07:34:37;100386.12;;;8.95;53.26
62055;BME280;48653;51.742;-1.256;2023-02-22T07:37:02;100395.20;;;8.96;53.21
62055;BME280;48653;51.742;-1.256;2023-02-22T07:39:27;100396.44;;;8.81;53.15
62055;BME280;48653;51.742;-1.256;2023-02-22T07:41:53;100394.30;;;9.59;53.27
62055;BME280;48653;51.742;-1.256;2023-02-22T07:44:18;100393.24;;;9.36;52.64
62055;BME280;48653;51.742;-1.256;2023-02-22T07:46:46;100392.76;;;9.07;53.24
62055;BME280;48653;51.742;-1.256;2023-02-22T07:49:09;100391.59;;;9.11;53.05
62055;BME280;48653;51.742;-1.256;2023-02-22T07:51:35;100395.79;;;9.33;52.95
62055;BME280;48653;51.742;-1.256;2023-02-22T07:54:00;100401.97;;;8.64;54.00
62055;BME280;48653;51.742;-1.256;2023-02-22T07:56:25;100408.44;;;8.67;54.75
62055;BME280;48653;51.742;-1.256;2023-02-22T07:58:51;100406.57;;;8.66;54.28
62055;BME280;48653;51.742;-1.256;2023-02-22T08:01:17;100409.08;;;8.53;53.92
62055;BME280;48653;51.742;-1.256;2023-02-22T08:03:42;100402.81;;;9.32;53.02
62055;BME280;48653;51.742;-1.256;2023-02-22T08:06:08;100404.94;;;8.54;54.37
62055;BME280;48653;51.742;-1.256;2023-02-22T08:08:33;100405.26;;;8.30;54.77
62055;BME280;48653;51.742;-1.256;2023-02-22T08:10:58;100406.27;;;8.41;54.92
62055;BME280;48653;51.742;-1.256;2023-02-22T08:13:24;100408.17;;;8.84;54.58
62055;BME280;48653;51.742;-1.256;2023-02-22T08:15:50;100410.57;;;8.60;54.87
62055;BME280;48653;51.742;-1.256;2023-02-22T08:18:16;100413.20;;;8.86;54.16
62055;BME280;48653;51.742;-1.256;2023-02-22T08:20:42;100409.38;;;8.71;54.89
62055;BME280;48653;51.742;-1.256;2023-02-22T08:23:07;100401.78;;;8.54;54.78
62055;BME280;48653;51.742;-1.256;2023-02-22T08:25:32;100407.34;;;8.29;55.15
62055;BME280;48653;51.742;-1.256;2023-02-22T08:27:58;100405.73;;;8.77;54.71
62055;BME280;48653;51.742;-1.256;2023-02-22T08:30:23;100403.42;;;8.57;54.57
62055;BME280;48653;51.742;-1.256;2023-02-22T08:32:48;100408.20;;;8.26;55.85
62055;BME280;48653;51.742;-1.256;2023-02-22T08:35:13;100408.05;;;8.50;55.68
62055;BME280;48653;51.742;-1.256;2023-02-22T08:37:41;100409.04;;;8.11;55.98
62055;BME280;48653;51.742;-1.256;2023-02-22T08:40:05;100411.95;;;7.47;56.92
62055;BME280;48653;51.742;-1.256;2023-02-22T08:42:29;100413.43;;;7.70;57.15
62055;BME280;48653;51.742;-1.256;2023-02-22T08:44:55;100413.53;;;8.52;55.18
62055;BME280;48653;51.742;-1.256;2023-02-22T08:47:21;100414.06;;;8.37;55.64
62055;BME280;48653;51.742;-1.256;2023-02-22T08:49:46;100416.36;;;8.55;55.04
62055;BME280;48653;51.742;-1.256;2023-02-22T08:52:11;100414.32;;;7.88;56.31
62055;BME280;48653;51.742;-1.256;2023-02-22T08:54:36;100411.43;;;8.35;56.26
62055;BME280;48653;51.742;-1.256;2023-02-22T08:57:02;100412.90;;;8.39;55.55
62055;BME280;48653;51.742;-1.256;2023-02-22T08:59:27;100413.93;;;8.03;56.44
62055;BME280;48653;51.742;-1.256;2023-02-22T09:01:52;100414.90;;;8.41;56.21
62055;BME280;48653;51.742;-1.256;2023-02-22T09:04:17;100414.29;;;8.18;57.15
62055;BME280;48653;51.742;-1.256;2023-02-22T09:06:42;100415.49;;;8.14;57.71
62055;BME280;48653;51.742;-1.256;2023-02-22T09:09:08;100414.52;;;7.99;58.05
62055;BME280;48653;51.742;-1.256;2023-02-22T09:11:34;100414.65;;;8.04;58.28
62055;BME280;48653;51.742;-1.256;2023-02-22T09:13:59;100414.77;;;8.51;57.24
62055;BME280;48653;51.742;-1.256;2023-02-22T09:16:24;100419.82;;;8.11;57.64
62055;BME280;48653;51.742;-1.256;2023-02-22T09:18:49;100420.59;;;8.39;57.61
62055;BME280;48653;51.742;-1.256;2023-02-22T09:21:14;100423.62;;;7.75;58.65
62055;BME280;48653;51.742;-1.256;2023-02-22T09:23:40;100423.53;;;8.30;58.15
62055;BME280;48653;51.742;-1.256;2023-02-22T09:26:07;100423.79;;;8.43;57.17
62055;BME280;48653;51.742;-1.256;2023-02-22T09:28:30;100421.05;;;8.88;56.49
62055;BME280;48653;51.742;-1.256;2023-02-22T09:30:56;100424.48;;;8.71;57.02
62055;BME280;48653;51.742;-1.256;2023-02-22T09:33:21;100417.99;;;8.76;56.44
62055;BME280;48653;51.742;-1.256;2023-02-22T09:35:48;100415.72;;;8.88;56.81
62055;BME280;48653;51.742;-1.256;2023-02-22T09:38:14;100417.20;;;8.25;58.08
62055;BME280;48653;51.742;-1.256;2023-02-22T09:40:41;100419.16;;;8.41;57.84
62055;BME280;48653;51.742;-1.256;2023-02-22T09:43:09;100415.01;;;8.81;56.94
62055;BME280;48653;51.742;-1.256;2023-02-22T09:45:31;100417.43;;;8.73;57.32
62055;BME280;48653;51.742;-1.256;2023-02-22T09:47:57;100419.72;;;8.61;57.50
62055;BME280;48653;51.742;-1.256;2023-02-22T09:50:22;100422.23;;;8.33;58.32
62055;BME280;48653;51.742;-1.256;2023-02-22T09:52:52;100425.55;;;8.57;58.32
62055;BME280;48653;51.742;-1.256;2023-02-22T09:55:16;100425.63;;;7.91;59.32
62055;BME280;48653;51.742;-1.256;2023-02-22T09:57:38;100430.23;;;8.47;58.32
62055;BME280;48653;51.742;-1.256;2023-02-22T10:00:06;100429.29;;;8.56;58.06
62055;BME280;48653;51.742;-1.256;2023-02-22T10:02:30;100427.91;;;8.57;58.05
62055;BME280;48653;51.742;-1.256;2023-02-22T10:04:58;100423.99;;;8.64;58.36
62055;BME280;48653;51.742;-1.256;2023-02-22T10:07:22;100423.31;;;8.64;58.25
62055;BME280;48653;51.742;-1.256;2023-02-22T10:09:45;100425.12;;;8.52;59.07
62055;BME280;48653;51.742;-1.256;2023-02-22T10:12:11;100422.85;;;8.70;58.14
62055;BME280;48653;51.742;-1.256;2023-02-22T10:14:47;100418.53;;;9.20;57.38
62055;BME280;48653;51.742;-1.256;2023-02-22T10:17:05;100424.91;;;8.50;58.35
62055;BME280;48653;51.742;-1.256;2023-02-22T10:19:31;100424.41;;;8.59;59.15
62055;BME280;48653;51.742;-1.256;2023-02-22T10:22:03;100427.83;;;8.21;59.42
62055;BME280;48653;51.742;-1.256;2023-02-22T10:24:26;100424.95;;;9.24;57.55
62055;BME280;48653;51.742;-1.256;2023-02-22T10:26:43;100422.93;;;9.37;56.84
62055;BME280;48653;51.742;-1.256;2023-02-22T10:29:12;100428.83;;;8.74;58.48
62055;BME280;48653;51.742;-1.256;2023-02-22T10:31:37;100432.54;;;9.01;57.76
62055;BME280;48653;51.742;-1.256;2023-02-22T10:33:59;100432.58;;;8.92;57.91
62055;BME280;48653;51.742;-1.256;2023-02-22T10:36:24;100431.67;;;8.93;57.22
62055;BME280;48653;51.742;-1.256;2023-02-22T10:38:53;100430.64;;;8.83;57.62
62055;BME280;48653;51.742;-1.256;2023-02-22T10:41:22;100432.20;;;9.01;57.29
62055;BME280;48653;51.742;-1.256;2023-02-22T10:43:40;100435.85;;;8.80;57.97
62055;BME280;48653;51.742;-1.256;2023-02-22T10:46:06;100441.57;;;8.70;58.64
62055;BME280;48653;51.742;-1.256;2023-02-22T10:48:31;100436.73;;;9.28;57.59
62055;BME280;48653;51.742;-1.256;2023-02-22T10:50:59;100437.27;;;9.37;57.31
62055;BME280;48653;51.742;-1.256;2023-02-22T10:53:20;100441.07;;;9.50;57.19
62055;BME280;48653;51.742;-1.256;2023-02-22T10:56:04;100440.08;;;9.62;57.73
62055;BME280;48653;51.742;-1.256;2023-02-22T10:58:11;100442.54;;;9.55;56.77
62055;BME280;48653;51.742;-1.256;2023-02-22T11:00:38;100441.08;;;9.61;56.36
62055;BME280;48653;51.742;-1.256;2023-02-22T11:03:04;100444.42;;;9.30;57.32
62055;BME280;48653;51.742;-1.256;2023-02-22T11:05:31;100442.33;;;9.31;56.88
62055;BME280;48653;51.742;-1.256;2023-02-22T11:12:44;100440.58;;;8.89;57.63
62055;BME280;48653;51.742;-1.256;2023-02-22T11:17:35;100439.49;;;9.83;56.62
62055;BME280;48653;51.742;-1.256;2023-02-22T11:20:01;100440.05;;;9.78;55.92
62055;BME280;48653;51.742;-1.256;2023-02-22T11:22:28;100440.43;;;9.74;55.34
62055;BME280;48653;51.742;-1.256;2023-02-22T11:24:53;100440.04;;;9.82;55.51
62055;BME280;48653;51.742;-1.256;2023-02-22T11:27:25;100441.75;;;10.04;54.78
62055;BME280;48653;51.742;-1.256;2023-02-22T11:29:42;100446.56;;;9.96;55.57
62055;BME280;48653;51.742;-1.256;2023-02-22T11:32:12;100446.73;;;9.07;56.49
62055;BME280;48653;51.742;-1.256;2023-02-22T11:34:35;100448.82;;;9.87;56.05
62055;BME280;48653;51.742;-1.256;2023-02-22T11:39:27;100454.62;;;8.99;57.92
62055;BME280;48653;51.742;-1.256;2023-02-22T11:41:51;100450.57;;;9.31;56.78
62055;BME280;48653;51.742;-1.256;2023-02-22T11:44:24;100455.22;;;8.98;57.90
62055;BME280;48653;51.742;-1.256;2023-02-22T11:46:41;100448.12;;;9.56;56.87
62055;BME280;48653;51.742;-1.256;2023-02-22T11:49:08;100451.17;;;9.52;56.12
62055;BME280;48653;51.742;-1.256;2023-02-22T11:51:40;100450.13;;;8.98;56.98
62055;BME280;48653;51.742;-1.256;2023-02-22T11:54:09;100453.62;;;8.97;56.10
62055;BME280;48653;51.742;-1.256;2023-02-22T11:56:27;100452.83;;;8.82;56.48
62055;BME280;48653;51.742;-1.256;2023-02-22T11:58:50;100454.42;;;9.54;54.92
62055;BME280;48653;51.742;-1.256;2023-02-22T12:01:21;100459.70;;;9.29;55.13
62055;BME280;48653;51.742;-1.256;2023-02-22T12:03:51;100460.48;;;8.91;55.78
62055;BME280;48653;51.742;-1.256;2023-02-22T12:06:13;100465.55;;;9.26;55.00
62055;BME280;48653;51.742;-1.256;2023-02-22T12:08:35;100467.12;;;8.99;55.35
62055;BME280;48653;51.742;-1.256;2023-02-22T12:11:01;100463.22;;;9.55;54.12
62055;BME280;48653;51.742;-1.256;2023-02-22T12:13:28;100464.26;;;9.47;53.90
62055;BME280;48653;51.742;-1.256;2023-02-22T12:15:47;100466.43;;;9.42;52.77
62055;BME280;48653;51.742;-1.256;2023-02-22T12:18:16;100470.81;;;8.98;54.98
62055;BME280;48653;51.742;-1.256;2023-02-22T12:20:38;100467.33;;;9.22;55.13
62055;BME280;48653;51.742;-1.256;2023-02-22T12:23:05;100465.89;;;9.51;53.44
62055;BME280;48653;51.742;-1.256;2023-02-22T12:25:25;100464.87;;;9.61;52.75
62055;BME280;48653;51.742;-1.256;2023-02-22T12:27:52;100467.55;;;9.38;54.21
62055;BME280;48653;51.742;-1.256;2023-02-22T12:30:18;100464.57;;;9.76;52.94
62055;BME280;48653;51.742;-1.256;2023-02-22T12:32:42;100464.19;;;9.84;52.58
62055;BME280;48653;51.742;-1.256;2023-02-22T12:35:10;100464.69;;;10.16;52.70
62055;BME280;48653;51.742;-1.256;2023-02-22T12:37:36;100461.68;;;9.56;52.43
62055;BME280;48653;51.742;-1.256;2023-02-22T12:40:02;100463.11;;;9.76;53.43
62055;BME280;48653;51.742;-1.256;2023-02-22T12:42:27;100460.14;;;9.90;50.79
62055;BME280;48653;51.742;-1.256;2023-02-22T12:44:51;100464.61;;;9.20;52.52
62055;BME280;48653;51.742;-1.256;2023-02-22T12:47:16;100464.69;;;9.70;53.15
62055;BME280;48653;51.742;-1.256;2023-02-22T12:49:40;100468.67;;;9.44;53.22
62055;BME280;48653;51.742;-1.256;2023-02-22T12:52:08;100462.06;;;9.37;52.35
62055;BME280;48653;51.742;-1.256;2023-02-22T12:54:36;100464.18;;;10.45;50.84
62055;BME280;48653;51.742;-1.256;2023-02-22T12:56:55;100461.03;;;10.16;51.17
62055;BME280;48653;51.742;-1.256;2023-02-22T12:59:20;100463.55;;;9.87;52.48